sensor_id;sensor_type;location;lat;lon;timestamp;pressure;altitude;pressure_sealevel;temperature;humidity
57904;BME280;43720;47.462;19.030;2023-03-14T05:00:47;99277.87;;;8.04;63.80
57904;BME280;43720;47.462;19.030;2023-03-14T05:03:50;99278.72;;;8.03;63.59
57904;BME280;43720;47.462;19.030;2023-03-14T05:06:53;99273.66;;;8.21;62.61
57904;BME280;43720;47.462;19.030;2023-03-14T05:09:55;99267.63;;;8.34;61.78
57904;BME280;43720;47.462;19.030;2023-03-14T05:12:58;99266.84;;;8.42;61.49
57904;BME280;43720;47.462;19.030;2023-03-14T05:16:09;99257.34;;;8.53;61.13
57904;BME280;43720;47.462;19.030;2023-03-14T05:19:12;99253.87;;;8.52;60.69
57904;BME280;43720;47.462;19.030;2023-03-14T05:22:15;99257.38;;;8.56;60.58
57904;BME280;43720;47.462;19.030;2023-03-14T05:25:18;99255.63;;;8.58;60.45
57904;BME280;43720;47.462;19.030;2023-03-14T05:28:21;99243.50;;;8.65;59.88
57904;BME280;43720;47.462;19.030;2023-03-14T05:31:23;99240.03;;;8.67;59.76
57904;BME280;43720;47.462;19.030;2023-03-14T05:34:26;99240.03;;;8.70;59.58
57904;BME280;43720;47.462;19.030;2023-03-14T05:37:29;99247.91;;;8.76;59.34
57904;BME280;43720;47.462;19.030;2023-03-14T05:40:31;99223.59;;;8.84;58.89
57904;BME280;43720;47.462;19.030;2023-03-14T05:43:34;99220.09;;;8.81;58.90
57904;BME280;43720;47.462;19.030;2023-03-14T05:46:36;99231.41;;;8.90;58.86
57904;BME280;43720;47.462;19.030;2023-03-14T05:49:39;99235.81;;;9.09;57.65
57904;BME280;43720;47.462;19.030;2023-03-14T05:52:42;99244.53;;;9.19;57.89
57904;BME280;43720;47.462;19.030;2023-03-14T05:55:44;99241.06;;;9.27;57.29
57904;BME280;43720;47.462;19.030;2023-03-14T05:58:47;99248.88;;;9.37;57.24
57904;BME280;43720;47.462;19.030;2023-03-14T06:01:50;99246.28;;;9.52;56.58
57904;BME280;43720;47.462;19.030;2023-03-14T06:04:52;99254.16;;;9.64;56.44
57904;BME280;43720;47.462;19.030;2023-03-14T06:07:55;99255.88;;;9.70;57.43
57904;BME280;43720;47.462;19.030;2023-03-14T06:10:57;99250.62;;;9.93;55.42
57904;BME280;43720;47.462;19.030;2023-03-14T06:14:00;99249.75;;;10.04;54.50
57904;BME280;43720;47.462;19.030;2023-03-14T06:17:03;99241.03;;;10.16;54.35
57904;BME280;43720;47.462;19.030;2023-03-14T06:20:08;99239.28;;;10.20;54.91
57904;BME280;43720;47.462;19.030;2023-03-14T06:23:10;99241.00;;;10.32;54.81
57904;BME280;43720;47.462;19.030;2023-03-14T06:26:13;99235.78;;;10.39;53.86
57904;BME280;43720;47.462;19.030;2023-03-14T06:29:15;99234.84;;;10.51;54.01
57904;BME280;43720;47.462;19.030;2023-03-14T06:32:18;99242.69;;;10.52;54.92
57904;BME280;43720;47.462;19.030;2023-03-14T06:35:22;99243.50;;;10.64;54.67
57904;BME280;43720;47.462;19.030;2023-03-14T06:38:24;99238.22;;;10.76;53.37
57904;BME280;43720;47.462;19.030;2023-03-14T06:41:27;99236.50;;;10.75;52.91
57904;BME280;43720;47.462;19.030;2023-03-14T06:44:32;99238.22;;;10.81;53.15
57904;BME280;43720;47.462;19.030;2023-03-14T06:47:35;99237.34;;;10.75;53.39
57904;BME280;43720;47.462;19.030;2023-03-14T06:50:37;99244.28;;;10.89;53.42
57904;BME280;43720;47.462;19.030;2023-03-14T06:53:40;99244.25;;;10.96;52.57
57904;BME280;43720;47.462;19.030;2023-03-14T06:56:43;99244.25;;;10.96;52.98
57904;BME280;43720;47.462;19.030;2023-03-14T06:59:45;99242.41;;;11.12;53.15
57904;BME280;43720;47.462;19.030;2023-03-14T07:02:48;99239.72;;;11.18;52.65
57904;BME280;43720;47.462;19.030;2023-03-14T07:05:51;99247.56;;;11.21;52.49
57904;BME280;43720;47.462;19.030;2023-03-14T07:08:53;99247.56;;;11.24;52.07
57904;BME280;43720;47.462;19.030;2023-03-14T07:11:56;99245.78;;;11.26;52.29
57904;BME280;43720;47.462;19.030;2023-03-14T07:14:58;99243.97;;;11.36;52.45
57904;BME280;43720;47.462;19.030;2023-03-14T07:18:18;99242.12;;;11.49;52.47
57904;BME280;43720;47.462;19.030;2023-03-14T07:21:20;99240.31;;;11.57;52.05
57904;BME280;43720;47.462;19.030;2023-03-14T07:24:23;99243.78;;;11.62;52.56
57904;BME280;43720;47.462;19.030;2023-03-14T07:27:25;99241.22;;;11.53;51.96
57904;BME280;43720;47.462;19.030;2023-03-14T07:30:28;99241.22;;;11.53;51.92
57904;BME280;43720;47.462;19.030;2023-03-14T07:33:31;99236.84;;;11.58;51.70
57904;BME280;43720;47.462;19.030;2023-03-14T07:36:34;99235.06;;;11.60;52.02
57904;BME280;43720;47.462;19.030;2023-03-14T07:39:37;99234.09;;;11.73;52.09
57904;BME280;43720;47.462;19.030;2023-03-14T07:42:41;99225.31;;;11.85;51.23
57904;BME280;43720;47.462;19.030;2023-03-14T07:45:47;99210.31;;;12.01;51.92
57904;BME280;43720;47.462;19.030;2023-03-14T07:49:00;99209.37;;;12.05;51.74
57904;BME280;43720;47.462;19.030;2023-03-14T07:52:02;99206.59;;;12.20;51.14
57904;BME280;43720;47.462;19.030;2023-03-14T07:55:05;99203.78;;;12.37;51.83
57904;BME280;43720;47.462;19.030;2023-03-14T07:58:07;99202.75;;;12.52;51.19
57904;BME280;43720;47.462;19.030;2023-03-14T08:01:10;99205.38;;;12.49;51.09
57904;BME280;43720;47.462;19.030;2023-03-14T08:04:12;99186.91;;;12.60;51.13
57904;BME280;43720;47.462;19.030;2023-03-14T08:07:14;99195.47;;;12.74;50.01
57904;BME280;43720;47.462;19.030;2023-03-14T08:10:17;99193.53;;;12.87;50.20
57904;BME280;43720;47.462;19.030;2023-03-14T08:13:25;99186.16;;;13.13;50.63
57904;BME280;43720;47.462;19.030;2023-03-14T08:16:27;99167.47;;;13.36;49.89
57904;BME280;43720;47.462;19.030;2023-03-14T08:19:30;99166.31;;;13.51;50.18
57904;BME280;43720;47.462;19.030;2023-03-14T08:22:32;99164.47;;;13.59;49.06
57904;BME280;43720;47.462;19.030;2023-03-14T08:25:34;99153.81;;;13.65;49.06
57904;BME280;43720;47.462;19.030;2023-03-14T08:28:37;99157.03;;;13.83;49.81
57904;BME280;43720;47.462;19.030;2023-03-14T08:31:39;99163.63;;;14.04;48.61
57904;BME280;43720;47.462;19.030;2023-03-14T08:34:43;99152.97;;;14.11;48.88
57904;BME280;43720;47.462;19.030;2023-03-14T08:37:45;99138.41;;;14.38;48.01
57904;BME280;43720;47.462;19.030;2023-03-14T08:40:48;99152.28;;;14.45;47.63
57904;BME280;43720;47.462;19.030;2023-03-14T08:43:51;99142.50;;;14.53;47.75
57904;BME280;43720;47.462;19.030;2023-03-14T08:46:54;99133.44;;;14.66;46.66
57904;BME280;43720;47.462;19.030;2023-03-14T08:49:56;99133.66;;;14.57;46.93
57904;BME280;43720;47.462;19.030;2023-03-14T08:52:59;99134.34;;;14.65;47.55
57904;BME280;43720;47.462;19.030;2023-03-14T08:56:03;99125.31;;;14.77;47.45
57904;BME280;43720;47.462;19.030;2023-03-14T08:59:07;99127.16;;;14.74;46.98
57904;BME280;43720;47.462;19.030;2023-03-14T09:02:11;99118.00;;;14.90;46.65
57904;BME280;43720;47.462;19.030;2023-03-14T09:05:15;99111.69;;;14.97;46.00
57904;BME280;43720;47.462;19.030;2023-03-14T09:08:17;99111.63;;;15.00;46.03
57904;BME280;43720;47.462;19.030;2023-03-14T09:11:20;99114.50;;;15.25;46.15
57904;BME280;43720;47.462;19.030;2023-03-14T09:14:22;99112.28;;;15.44;44.23
57904;BME280;43720;47.462;19.030;2023-03-14T09:17:25;99096.59;;;15.41;44.43
57904;BME280;43720;47.462;19.030;2023-03-14T09:20:27;99097.00;;;15.58;45.58
57904;BME280;43720;47.462;19.030;2023-03-14T09:23:30;99093.25;;;15.69;44.26
57904;BME280;43720;47.462;19.030;2023-03-14T09:26:32;99081.66;;;16.05;44.45
57904;BME280;43720;47.462;19.030;2023-03-14T09:29:35;99084.81;;;16.18;44.07
57904;BME280;43720;47.462;19.030;2023-03-14T09:32:37;99074.59;;;16.07;43.29
57904;BME280;43720;47.462;19.030;2023-03-14T09:35:40;99064.19;;;16.32;43.83
57904;BME280;43720;47.462;19.030;2023-03-14T09:38:42;99055.84;;;16.46;42.99
57904;BME280;43720;47.462;19.030;2023-03-14T09:41:47;99048.13;;;16.40;42.33
57904;BME280;43720;47.462;19.030;2023-03-14T09:44:56;99056.91;;;16.41;43.64
57904;BME280;43720;47.462;19.030;2023-03-14T09:48:03;99053.53;;;16.63;42.24
57904;BME280;43720;47.462;19.030;2023-03-14T09:51:13;99037.34;;;16.76;42.24
57904;BME280;43720;47.462;19.030;2023-03-14T09:54:47;99040.16;;;16.70;42.74
57904;BME280;43720;47.462;19.030;2023-03-14T09:57:51;99027.03;;;16.96;43.05
57904;BME280;43720;47.462;19.030;2023-03-14T10:00:58;99015.88;;;17.38;42.43
57904;BME280;43720;47.462;19.030;2023-03-14T10:04:07;99008.03;;;17.36;42.44
57904;BME280;43720;47.462;19.030;2023-03-14T10:07:17;99003.50;;;17.40;43.24
57904;BME280;43720;47.462;19.030;2023-03-14T10:10:24;98997.91;;;17.73;43.29
57904;BME280;43720;47.462;19.030;2023-03-14T10:13:27;98989.13;;;17.96;41.05
57904;BME280;43720;47.462;19.030;2023-03-14T10:16:40;98976.53;;;18.26;41.06
57904;BME280;43720;47.462;19.030;2023-03-14T10:20:01;98975.22;;;18.58;38.90
57904;BME280;43720;47.462;19.030;2023-03-14T10:23:21;98972.13;;;18.70;38.72
57904;BME280;43720;47.462;19.030;2023-03-14T10:26:27;98954.03;;;19.02;37.90
57904;BME280;43720;47.462;19.030;2023-03-14T10:29:33;98958.47;;;19.22;36.58
57904;BME280;43720;47.462;19.030;2023-03-14T10:32:38;98948.78;;;19.41;36.71
57904;BME280;43720;47.462;19.030;2023-03-14T10:35:43;98944.13;;;19.46;36.82
57904;BME280;43720;47.462;19.030;2023-03-14T10:38:46;98940.87;;;19.40;36.70
57904;BME280;43720;47.462;19.030;2023-03-14T10:41:50;98942.34;;;19.26;36.32
57904;BME280;43720;47.462;19.030;2023-03-14T10:45:00;98927.94;;;19.13;36.24
57904;BME280;43720;47.462;19.030;2023-03-14T10:48:23;98930.91;;;19.05;37.36
57904;BME280;43720;47.462;19.030;2023-03-14T10:51:28;98923.81;;;19.06;37.18
57904;BME280;43720;47.462;19.030;2023-03-14T10:54:32;98922.22;;;19.22;37.20
57904;BME280;43720;47.462;19.030;2023-03-14T10:57:41;98910.22;;;19.34;37.20
57904;BME280;43720;47.462;19.030;2023-03-14T11:00:46;98908.72;;;19.47;36.74
57904;BME280;43720;47.462;19.030;2023-03-14T11:03:57;98903.28;;;19.50;36.13
57904;BME280;43720;47.462;19.030;2023-03-14T11:07:12;98902.00;;;19.59;35.75
57904;BME280;43720;47.462;19.030;2023-03-14T11:10:43;98906.34;;;19.62;36.33
57904;BME280;43720;47.462;19.030;2023-03-14T11:17:02;98881.81;;;19.57;35.91
57904;BME280;43720;47.462;19.030;2023-03-14T11:23:33;98875.88;;;19.89;36.44
57904;BME280;43720;47.462;19.030;2023-03-14T11:29:58;98858.16;;;19.90;35.41
57904;BME280;43720;47.462;19.030;2023-03-14T11:33:17;98862.47;;;19.73;36.19
57904;BME280;43720;47.462;19.030;2023-03-14T11:36:31;98864.41;;;19.70;36.21
57904;BME280;43720;47.462;19.030;2023-03-14T11:39:47;98855.97;;;19.81;36.18
57904;BME280;43720;47.462;19.030;2023-03-14T11:43:15;98853.03;;;19.87;35.08
57904;BME280;43720;47.462;19.030;2023-03-14T11:46:31;98842.84;;;19.77;35.63
57904;BME280;43720;47.462;19.030;2023-03-14T11:49:40;98840.47;;;19.90;35.42
57904;BME280;43720;47.462;19.030;2023-03-14T11:52:50;98830.13;;;20.03;35.44
57904;BME280;43720;47.462;19.030;2023-03-14T11:55:54;98844.88;;;20.09;34.62
57904;BME280;43720;47.462;19.030;2023-03-14T11:59:01;98833.97;;;20.32;35.23
57904;BME280;43720;47.462;19.030;2023-03-14T12:02:21;98839.09;;;20.54;34.79
57904;BME280;43720;47.462;19.030;2023-03-14T12:09:00;98823.09;;;20.73;33.67
57904;BME280;43720;47.462;19.030;2023-03-14T12:12:13;98809.97;;;20.70;33.55
57904;BME280;43720;47.462;19.030;2023-03-14T12:15:21;98811.34;;;20.77;34.03
57904;BME280;43720;47.462;19.030;2023-03-14T12:18:29;98807.50;;;20.83;33.52
57904;BME280;43720;47.462;19.030;2023-03-14T12:21:57;98807.56;;;20.98;32.99
57904;BME280;43720;47.462;19.030;2023-03-14T12:34:42;98779.72;;;21.06;34.69
57904;BME280;43720;47.462;19.030;2023-03-14T12:37:50;98788.50;;;20.90;34.08
57904;BME280;43720;47.462;19.030;2023-03-14T12:41:15;98794.53;;;20.94;34.34
57904;BME280;43720;47.462;19.030;2023-03-14T12:50:42;98771.28;;;20.47;34.53
57904;BME280;43720;47.462;19.030;2023-03-14T13:00:34;98757.63;;;20.20;35.50
57904;BME280;43720;47.462;19.030;2023-03-14T13:06:59;98754.94;;;19.68;34.64
57904;BME280;43720;47.462;19.030;2023-03-14T13:13:22;98750.28;;;19.35;35.76
57904;BME280;43720;47.462;19.030;2023-03-14T13:16:29;98741.91;;;19.25;36.27
57904;BME280;43720;47.462;19.030;2023-03-14T13:19:33;98745.06;;;19.15;36.48
57904;BME280;43720;47.462;19.030;2023-03-14T13:22:38;98743.00;;;19.02;36.52
57904;BME280;43720;47.462;19.030;2023-03-14T13:25:44;98735.44;;;18.93;37.05
57904;BME280;43720;47.462;19.030;2023-03-14T13:28:48;98747.19;;;18.88;38.06
57904;BME280;43720;47.462;19.030;2023-03-14T13:31:53;98737.69;;;18.84;37.81
57904;BME280;43720;47.462;19.030;2023-03-14T13:34:57;98751.25;;;18.76;38.04
57904;BME280;43720;47.462;19.030;2023-03-14T13:38:01;98745.47;;;18.66;38.15
57904;BME280;43720;47.462;19.030;2023-03-14T13:41:13;98753.38;;;18.68;38.44
57904;BME280;43720;47.462;19.030;2023-03-14T13:44:35;98751.69;;;18.65;38.87
57904;BME280;43720;47.462;19.030;2023-03-14T13:47:39;98757.63;;;18.72;38.20
57904;BME280;43720;47.462;19.030;2023-03-14T13:51:05;98761.13;;;18.72;38.94
57904;BME280;43720;47.462;19.030;2023-03-14T13:54:17;98757.81;;;18.67;37.91
57904;BME280;43720;47.462;19.030;2023-03-14T13:57:20;98752.63;;;18.64;38.02
57904;BME280;43720;47.462;19.030;2023-03-14T14:00:27;98753.09;;;18.74;37.84
57904;BME280;43720;47.462;19.030;2023-03-14T14:03:30;98749.59;;;18.73;37.47
57904;BME280;43720;47.462;19.030;2023-03-14T14:06:36;98759.34;;;18.73;36.97
57904;BME280;43720;47.462;19.030;2023-03-14T14:09:40;98762.22;;;18.87;37.64
57904;BME280;43720;47.462;19.030;2023-03-14T14:12:53;98751.34;;;18.93;37.48
57904;BME280;43720;47.462;19.030;2023-03-14T14:15:59;98747.44;;;19.02;37.30
57904;BME280;43720;47.462;19.030;2023-03-14T14:19:03;98746.28;;;19.08;36.75
57904;BME280;43720;47.462;19.030;2023-03-14T14:22:05;98734.09;;;19.03;37.26
57904;BME280;43720;47.462;19.030;2023-03-14T14:25:13;98740.84;;;18.92;38.10
57904;BME280;43720;47.462;19.030;2023-03-14T14:31:28;98743.41;;;18.93;38.01
57904;BME280;43720;47.462;19.030;2023-03-14T14:34:42;98747.22;;;19.06;37.49
57904;BME280;43720;47.462;19.030;2023-03-14T14:37:51;98738.78;;;18.98;37.87
57904;BME280;43720;47.462;19.030;2023-03-14T14:40:59;98736.88;;;19.00;37.88
57904;BME280;43720;47.462;19.030;2023-03-14T14:44:03;98735.81;;;19.04;38.03
57904;BME280;43720;47.462;19.030;2023-03-14T14:47:06;98741.19;;;19.03;38.78
57904;BME280;43720;47.462;19.030;2023-03-14T14:56:39;98727.59;;;19.11;37.76
57904;BME280;43720;47.462;19.030;2023-03-14T14:59:42;98720.00;;;19.03;37.80
57904;BME280;43720;47.462;19.030;2023-03-14T15:02:47;98721.00;;;19.00;37.39
57904;BME280;43720;47.462;19.030;2023-03-14T15:05:49;98723.88;;;18.96;37.93
57904;BME280;43720;47.462;19.030;2023-03-14T15:08:52;98726.22;;;18.83;38.11
57904;BME280;43720;47.462;19.030;2023-03-14T15:11:54;98725.66;;;18.76;39.00
57904;BME280;43720;47.462;19.030;2023-03-14T15:14:57;98735.78;;;18.67;38.48
57904;BME280;43720;47.462;19.030;2023-03-14T15:17:59;98731.47;;;18.64;38.72
57904;BME280;43720;47.462;19.030;2023-03-14T15:21:02;98746.81;;;18.56;38.54
57904;BME280;43720;47.462;19.030;2023-03-14T15:24:05;98751.81;;;18.43;39.10
57904;BME280;43720;47.462;19.030;2023-03-14T15:27:15;98753.13;;;18.33;38.81
57904;BME280;43720;47.462;19.030;2023-03-14T15:30:18;98752.47;;;18.28;39.11
57904;BME280;43720;47.462;19.030;2023-03-14T15:33:21;98755.78;;;18.13;39.37
57904;BME280;43720;47.462;19.030;2023-03-14T15:36:29;98765.75;;;18.06;39.65
57904;BME280;43720;47.462;19.030;2023-03-14T15:39:35;98762.34;;;18.02;38.88
57904;BME280;43720;47.462;19.030;2023-03-14T15:42:38;98766.50;;;17.88;39.06
57904;BME280;43720;47.462;19.030;2023-03-14T15:45:40;98772.47;;;17.93;39.01
57904;BME280;43720;47.462;19.030;2023-03-14T15:48:44;98772.72;;;17.87;39.32
57904;BME280;43720;47.462;19.030;2023-03-14T15:51:47;98802.25;;;17.74;39.06
57904;BME280;43720;47.462;19.030;2023-03-14T15:54:49;98830.25;;;17.56;44.32
57904;BME280;43720;47.462;19.030;2023-03-14T15:57:51;98839.41;;;17.24;48.25
57904;BME280;43720;47.462;19.030;2023-03-14T16:00:54;98836.13;;;16.94;52.17
57904;BME280;43720;47.462;19.030;2023-03-14T16:03:56;98843.97;;;16.71;55.57
57904;BME280;43720;47.462;19.030;2023-03-14T16:06:58;98859.13;;;16.39;57.98
57904;BME280;43720;47.462;19.030;2023-03-14T16:10:01;98851.38;;;16.08;62.82
57904;BME280;43720;47.462;19.030;2023-03-14T16:13:05;98847.84;;;15.81;64.49
57904;BME280;43720;47.462;19.030;2023-03-14T16:16:08;98854.00;;;15.50;67.16
57904;BME280;43720;47.462;19.030;2023-03-14T16:19:10;98857.56;;;15.20;71.36
57904;BME280;43720;47.462;19.030;2023-03-14T16:22:12;98854.84;;;14.91;72.64
